sensor_id;sensor_type;location;lat;lon;timestamp;pressure;altitude;pressure_sealevel;temperature;humidity
28448;BME280;15675;52.870;-1.416;2022-09-09T00:02:22;99750.53;;;17.63;100.00
28448;BME280;15675;52.870;-1.416;2022-09-09T00:07:23;99751.63;;;17.57;100.00
28448;BME280;15675;52.870;-1.416;2022-09-09T00:13:14;99748.31;;;17.74;100.00
28448;BME280;15675;52.870;-1.416;2022-09-09T00:15:57;99750.16;;;17.72;100.00
28448;BME280;15675;52.870;-1.416;2022-09-09T00:18:30;99755.84;;;17.61;100.00
28448;BME280;15675;52.870;-1.416;2022-09-09T00:23:30;99752.78;;;17.50;100.00
28448;BME280;15675;52.870;-1.416;2022-09-09T00:29:04;99752.31;;;17.62;100.00
28448;BME280;15675;52.870;-1.416;2022-09-09T00:31:31;99758.41;;;17.63;100.00
28448;BME280;15675;52.870;-1.416;2022-09-09T00:34:18;99754.19;;;17.58;100.00
28448;BME280;15675;52.870;-1.416;2022-09-09T00:36:48;99755.97;;;17.58;100.00
28448;BME280;15675;52.870;-1.416;2022-09-09T00:39:36;99751.28;;;17.44;100.00
28448;BME280;15675;52.870;-1.416;2022-09-09T00:42:08;99755.38;;;17.29;100.00
28448;BME280;15675;52.870;-1.416;2022-09-09T00:44:38;99756.88;;;17.13;100.00
28448;BME280;15675;52.870;-1.416;2022-09-09T00:47:40;99751.91;;;16.81;100.00
28448;BME280;15675;52.870;-1.416;2022-09-09T00:55:45;99766.03;;;16.28;100.00
28448;BME280;15675;52.870;-1.416;2022-09-09T00:58:14;99762.69;;;16.73;100.00
28448;BME280;15675;52.870;-1.416;2022-09-09T01:00:44;99766.00;;;17.02;100.00
28448;BME280;15675;52.870;-1.416;2022-09-09T01:11:35;99764.69;;;17.58;100.00
28448;BME280;15675;52.870;-1.416;2022-09-09T01:16:57;99768.47;;;17.73;100.00
28448;BME280;15675;52.870;-1.416;2022-09-09T01:22:06;99767.38;;;17.57;100.00
28448;BME280;15675;52.870;-1.416;2022-09-09T01:25:01;99774.06;;;17.64;100.00
28448;BME280;15675;52.870;-1.416;2022-09-09T01:27:27;99767.72;;;17.70;100.00
28448;BME280;15675;52.870;-1.416;2022-09-09T01:29:54;99774.69;;;17.71;100.00
28448;BME280;15675;52.870;-1.416;2022-09-09T01:33:12;99766.31;;;17.83;100.00
28448;BME280;15675;52.870;-1.416;2022-09-09T01:37:56;99767.75;;;17.92;100.00
28448;BME280;15675;52.870;-1.416;2022-09-09T01:40:22;99761.22;;;17.58;100.00
28448;BME280;15675;52.870;-1.416;2022-09-09T01:42:49;99765.28;;;17.65;100.00
28448;BME280;15675;52.870;-1.416;2022-09-09T01:45:14;99758.34;;;17.64;100.00
28448;BME280;15675;52.870;-1.416;2022-09-09T01:47:41;99765.31;;;17.43;100.00
28448;BME280;15675;52.870;-1.416;2022-09-09T01:50:09;99768.25;;;17.57;100.00
28448;BME280;15675;52.870;-1.416;2022-09-09T01:52:37;99771.16;;;17.72;100.00
28448;BME280;15675;52.870;-1.416;2022-09-09T01:55:04;99760.72;;;17.92;100.00
28448;BME280;15675;52.870;-1.416;2022-09-09T01:57:41;99769.53;;;17.90;100.00
28448;BME280;15675;52.870;-1.416;2022-09-09T02:00:12;99757.25;;;17.92;100.00
28448;BME280;15675;52.870;-1.416;2022-09-09T02:05:37;99759.06;;;17.68;100.00
28448;BME280;15675;52.870;-1.416;2022-09-09T02:08:15;99757.34;;;17.89;100.00
28448;BME280;15675;52.870;-1.416;2022-09-09T02:10:56;99757.72;;;18.02;100.00
28448;BME280;15675;52.870;-1.416;2022-09-09T02:13:24;99757.22;;;18.13;100.00
28448;BME280;15675;52.870;-1.416;2022-09-09T02:16:08;99759.41;;;18.23;100.00
28448;BME280;15675;52.870;-1.416;2022-09-09T02:19:01;99764.38;;;18.29;100.00
28448;BME280;15675;52.870;-1.416;2022-09-09T02:21:31;99756.06;;;18.20;100.00
28448;BME280;15675;52.870;-1.416;2022-09-09T02:24:03;99754.28;;;18.00;100.00
28448;BME280;15675;52.870;-1.416;2022-09-09T02:26:31;99747.84;;;18.07;100.00
28448;BME280;15675;52.870;-1.416;2022-09-09T02:29:01;99753.44;;;18.20;100.00
28448;BME280;15675;52.870;-1.416;2022-09-09T02:31:28;99759.34;;;18.25;100.00
28448;BME280;15675;52.870;-1.416;2022-09-09T02:33:57;99757.50;;;18.27;100.00
28448;BME280;15675;52.870;-1.416;2022-09-09T02:36:27;99757.63;;;18.24;100.00
28448;BME280;15675;52.870;-1.416;2022-09-09T02:38:54;99756.94;;;18.20;100.00
28448;BME280;15675;52.870;-1.416;2022-09-09T02:41:26;99758.03;;;18.15;100.00
28448;BME280;15675;52.870;-1.416;2022-09-09T02:43:53;99753.03;;;18.08;100.00
28448;BME280;15675;52.870;-1.416;2022-09-09T02:46:27;99757.56;;;18.05;100.00
28448;BME280;15675;52.870;-1.416;2022-09-09T02:54:15;99752.78;;;17.50;100.00
28448;BME280;15675;52.870;-1.416;2022-09-09T02:56:47;99750.38;;;17.45;100.00
28448;BME280;15675;52.870;-1.416;2022-09-09T02:59:15;99753.59;;;17.52;100.00
28448;BME280;15675;52.870;-1.416;2022-09-09T03:01:41;99754.19;;;17.58;100.00
28448;BME280;15675;52.870;-1.416;2022-09-09T03:04:07;99755.53;;;17.69;100.00
28448;BME280;15675;52.870;-1.416;2022-09-09T03:06:32;99749.13;;;17.54;100.00
28448;BME280;15675;52.870;-1.416;2022-09-09T03:08:58;99747.94;;;17.40;100.00
28448;BME280;15675;52.870;-1.416;2022-09-09T03:11:26;99751.41;;;17.41;100.00
28448;BME280;15675;52.870;-1.416;2022-09-09T03:13:53;99746.34;;;17.36;100.00
28448;BME280;15675;52.870;-1.416;2022-09-09T03:16:20;99748.06;;;17.37;100.00
28448;BME280;15675;52.870;-1.416;2022-09-09T03:18:46;99751.88;;;17.29;100.00
28448;BME280;15675;52.870;-1.416;2022-09-09T03:21:12;99751.75;;;17.10;100.00
28448;BME280;15675;52.870;-1.416;2022-09-09T03:23:37;99756.59;;;17.20;100.00
28448;BME280;15675;52.870;-1.416;2022-09-09T03:26:03;99763.09;;;17.32;100.00
28448;BME280;15675;52.870;-1.416;2022-09-09T03:28:28;99758.72;;;17.33;100.00
28448;BME280;15675;52.870;-1.416;2022-09-09T03:31:04;99760.91;;;17.21;100.00
28448;BME280;15675;52.870;-1.416;2022-09-09T03:33:30;99762.59;;;17.00;100.00
28448;BME280;15675;52.870;-1.416;2022-09-09T03:35:56;99758.59;;;17.14;100.00
28448;BME280;15675;52.870;-1.416;2022-09-09T03:38:26;99758.34;;;17.20;100.00
28448;BME280;15675;52.870;-1.416;2022-09-09T03:40:52;99764.34;;;17.23;100.00
28448;BME280;15675;52.870;-1.416;2022-09-09T03:43:26;99767.38;;;17.35;100.00
28448;BME280;15675;52.870;-1.416;2022-09-09T03:45:52;99769.75;;;17.41;100.00
28448;BME280;15675;52.870;-1.416;2022-09-09T03:48:18;99775.47;;;17.06;100.00
28448;BME280;15675;52.870;-1.416;2022-09-09T03:50:46;99779.31;;;17.20;100.00
28448;BME280;15675;52.870;-1.416;2022-09-09T03:53:12;99777.94;;;17.33;100.00
28448;BME280;15675;52.870;-1.416;2022-09-09T03:55:37;99776.19;;;16.86;100.00
28448;BME280;15675;52.870;-1.416;2022-09-09T03:58:03;99781.84;;;16.25;100.00
28448;BME280;15675;52.870;-1.416;2022-09-09T04:00:29;99779.66;;;16.13;100.00
28448;BME280;15675;52.870;-1.416;2022-09-09T04:02:55;99789.28;;;16.37;100.00
28448;BME280;15675;52.870;-1.416;2022-09-09T04:05:23;99786.63;;;16.39;100.00
28448;BME280;15675;52.870;-1.416;2022-09-09T04:07:48;99780.84;;;16.29;100.00
28448;BME280;15675;52.870;-1.416;2022-09-09T04:10:14;99790.97;;;16.38;100.00
28448;BME280;15675;52.870;-1.416;2022-09-09T04:12:41;99794.06;;;16.25;100.00
28448;BME280;15675;52.870;-1.416;2022-09-09T04:15:06;99790.44;;;16.29;100.00
28448;BME280;15675;52.870;-1.416;2022-09-09T04:17:32;99797.13;;;15.85;100.00
28448;BME280;15675;52.870;-1.416;2022-09-09T04:19:58;99799.91;;;15.81;100.00
28448;BME280;15675;52.870;-1.416;2022-09-09T04:22:23;99807.81;;;15.78;100.00
28448;BME280;15675;52.870;-1.416;2022-09-09T04:24:49;99810.81;;;15.65;100.00
28448;BME280;15675;52.870;-1.416;2022-09-09T04:27:14;99804.81;;;15.62;100.00
28448;BME280;15675;52.870;-1.416;2022-09-09T04:29:40;99812.03;;;15.83;100.00
28448;BME280;15675;52.870;-1.416;2022-09-09T04:32:05;99806.88;;;15.80;100.00
28448;BME280;15675;52.870;-1.416;2022-09-09T04:34:31;99811.50;;;15.72;100.00
28448;BME280;15675;52.870;-1.416;2022-09-09T04:36:56;99814.44;;;15.90;100.00
28448;BME280;15675;52.870;-1.416;2022-09-09T04:39:22;99817.63;;;16.26;100.00
28448;BME280;15675;52.870;-1.416;2022-09-09T04:41:48;99825.47;;;16.25;100.00
28448;BME280;15675;52.870;-1.416;2022-09-09T04:44:14;99824.41;;;16.32;100.00
28448;BME280;15675;52.870;-1.416;2022-09-09T04:46:39;99820.53;;;16.67;100.00
28448;BME280;15675;52.870;-1.416;2022-09-09T04:49:06;99821.44;;;16.41;100.00
28448;BME280;15675;52.870;-1.416;2022-09-09T04:51:32;99823.78;;;16.74;100.00
28448;BME280;15675;52.870;-1.416;2022-09-09T04:53:58;99829.72;;;16.54;100.00
28448;BME280;15675;52.870;-1.416;2022-09-09T04:56:24;99819.72;;;16.15;100.00
28448;BME280;15675;52.870;-1.416;2022-09-09T04:58:52;99827.31;;;15.96;100.00
28448;BME280;15675;52.870;-1.416;2022-09-09T05:01:20;99832.22;;;15.78;100.00
28448;BME280;15675;52.870;-1.416;2022-09-09T05:03:47;99832.25;;;16.32;100.00
28448;BME280;15675;52.870;-1.416;2022-09-09T05:06:15;99830.50;;;16.05;100.00
28448;BME280;15675;52.870;-1.416;2022-09-09T05:08:42;99836.59;;;15.79;100.00
28448;BME280;15675;52.870;-1.416;2022-09-09T05:11:14;99836.13;;;15.93;100.00
28448;BME280;15675;52.870;-1.416;2022-09-09T05:13:41;99837.84;;;16.21;100.00
28448;BME280;15675;52.870;-1.416;2022-09-09T05:16:07;99834.22;;;15.98;100.00
28448;BME280;15675;52.870;-1.416;2022-09-09T05:18:32;99837.66;;;15.72;100.00
28448;BME280;15675;52.870;-1.416;2022-09-09T05:21:00;99843.94;;;15.66;100.00
28448;BME280;15675;52.870;-1.416;2022-09-09T05:23:26;99857.47;;;15.81;100.00
28448;BME280;15675;52.870;-1.416;2022-09-09T05:25:57;99849.03;;;15.41;100.00
28448;BME280;15675;52.870;-1.416;2022-09-09T05:28:26;99857.28;;;15.57;100.00
28448;BME280;15675;52.870;-1.416;2022-09-09T05:31:05;99865.91;;;15.61;100.00
28448;BME280;15675;52.870;-1.416;2022-09-09T05:33:34;99862.56;;;15.26;100.00
28448;BME280;15675;52.870;-1.416;2022-09-09T05:36:11;99871.56;;;15.15;100.00
28448;BME280;15675;52.870;-1.416;2022-09-09T05:38:39;99878.06;;;15.32;100.00
28448;BME280;15675;52.870;-1.416;2022-09-09T05:41:05;99866.63;;;15.36;100.00
28448;BME280;15675;52.870;-1.416;2022-09-09T05:43:31;99883.66;;;15.49;100.00
28448;BME280;15675;52.870;-1.416;2022-09-09T05:48:46;99884.06;;;15.65;100.00
28448;BME280;15675;52.870;-1.416;2022-09-09T05:51:20;99886.53;;;15.70;100.00
28448;BME280;15675;52.870;-1.416;2022-09-09T05:53:47;99886.47;;;15.71;100.00
28448;BME280;15675;52.870;-1.416;2022-09-09T05:56:14;99886.56;;;15.68;100.00
28448;BME280;15675;52.870;-1.416;2022-09-09T05:58:40;99894.47;;;15.67;100.00
28448;BME280;15675;52.870;-1.416;2022-09-09T06:01:25;99890.53;;;15.53;100.00
28448;BME280;15675;52.870;-1.416;2022-09-09T06:03:52;99894.38;;;15.40;100.00
28448;BME280;15675;52.870;-1.416;2022-09-09T06:06:24;99898.19;;;15.60;100.00
28448;BME280;15675;52.870;-1.416;2022-09-09T06:08:52;99900.38;;;15.74;100.00
28448;BME280;15675;52.870;-1.416;2022-09-09T06:11:20;99899.16;;;15.56;100.00
28448;BME280;15675;52.870;-1.416;2022-09-09T06:13:47;99902.16;;;15.71;100.00
28448;BME280;15675;52.870;-1.416;2022-09-09T06:16:17;99908.06;;;15.80;100.00
28448;BME280;15675;52.870;-1.416;2022-09-09T06:18:43;99909.00;;;16.05;100.00
28448;BME280;15675;52.870;-1.416;2022-09-09T06:21:12;99911.59;;;15.77;100.00
28448;BME280;15675;52.870;-1.416;2022-09-09T06:23:40;99910.06;;;15.70;100.00
28448;BME280;15675;52.870;-1.416;2022-09-09T06:26:09;99908.53;;;15.93;100.00
28448;BME280;15675;52.870;-1.416;2022-09-09T06:28:36;99913.47;;;15.74;100.00
28448;BME280;15675;52.870;-1.416;2022-09-09T06:31:07;99913.94;;;15.88;100.00
28448;BME280;15675;52.870;-1.416;2022-09-09T06:33:38;99915.34;;;15.98;100.00
28448;BME280;15675;52.870;-1.416;2022-09-09T06:36:11;99919.25;;;15.85;100.00
28448;BME280;15675;52.870;-1.416;2022-09-09T06:38:37;99924.97;;;15.98;100.00
28448;BME280;15675;52.870;-1.416;2022-09-09T06:41:03;99917.75;;;15.46;100.00
28448;BME280;15675;52.870;-1.416;2022-09-09T06:43:30;99923.00;;;15.45;100.00
28448;BME280;15675;52.870;-1.416;2022-09-09T06:46:19;99935.88;;;15.52;100.00
28448;BME280;15675;52.870;-1.416;2022-09-09T06:48:45;99937.66;;;15.50;100.00
28448;BME280;15675;52.870;-1.416;2022-09-09T06:53:38;99946.00;;;15.63;100.00
28448;BME280;15675;52.870;-1.416;2022-09-09T06:58:36;99936.41;;;15.64;100.00
28448;BME280;15675;52.870;-1.416;2022-09-09T07:01:06;99936.41;;;15.64;100.00
28448;BME280;15675;52.870;-1.416;2022-09-09T07:03:32;99938.91;;;15.68;100.00
28448;BME280;15675;52.870;-1.416;2022-09-09T07:05:59;99944.38;;;15.61;100.00
28448;BME280;15675;52.870;-1.416;2022-09-09T07:08:25;99951.44;;;15.57;100.00
28448;BME280;15675;52.870;-1.416;2022-09-09T07:10:51;99950.41;;;15.31;100.00
28448;BME280;15675;52.870;-1.416;2022-09-09T07:13:26;99950.88;;;15.46;100.00
28448;BME280;15675;52.870;-1.416;2022-09-09T07:15:52;99967.09;;;15.88;100.00
28448;BME280;15675;52.870;-1.416;2022-09-09T07:18:19;99963.84;;;15.80;100.00
28448;BME280;15675;52.870;-1.416;2022-09-09T07:20:54;99962.69;;;15.91;100.00
28448;BME280;15675;52.870;-1.416;2022-09-09T07:23:21;99961.78;;;15.92;100.00
28448;BME280;15675;52.870;-1.416;2022-09-09T07:25:47;99968.09;;;15.84;100.00
28448;BME280;15675;52.870;-1.416;2022-09-09T07:28:13;99965.53;;;15.83;100.00
28448;BME280;15675;52.870;-1.416;2022-09-09T07:30:39;99976.47;;;15.96;100.00
28448;BME280;15675;52.870;-1.416;2022-09-09T07:33:05;99975.34;;;16.04;100.00
28448;BME280;15675;52.870;-1.416;2022-09-09T07:35:31;99985.34;;;16.20;100.00
28448;BME280;15675;52.870;-1.416;2022-09-09T07:37:57;99979.38;;;15.86;100.00
28448;BME280;15675;52.870;-1.416;2022-09-09T07:40:24;99988.97;;;16.16;100.00
28448;BME280;15675;52.870;-1.416;2022-09-09T07:42:49;99986.75;;;16.32;100.00
28448;BME280;15675;52.870;-1.416;2022-09-09T07:45:15;99989.72;;;16.19;100.00
28448;BME280;15675;52.870;-1.416;2022-09-09T07:47:41;99988.63;;;16.27;100.00
28448;BME280;15675;52.870;-1.416;2022-09-09T07:50:09;99989.59;;;16.24;100.00
28448;BME280;15675;52.870;-1.416;2022-09-09T07:52:35;99998.13;;;16.31;100.00
28448;BME280;15675;52.870;-1.416;2022-09-09T07:55:01;99994.59;;;16.32;100.00
28448;BME280;15675;52.870;-1.416;2022-09-09T07:57:30;100010.31;;;16.32;100.00
28448;BME280;15675;52.870;-1.416;2022-09-09T07:59:56;100008.44;;;16.35;100.00
28448;BME280;15675;52.870;-1.416;2022-09-09T08:02:25;100005.34;;;16.51;100.00
28448;BME280;15675;52.870;-1.416;2022-09-09T08:04:53;100004.22;;;16.58;100.00
28448;BME280;15675;52.870;-1.416;2022-09-09T08:07:18;100004.50;;;16.49;100.00
28448;BME280;15675;52.870;-1.416;2022-09-09T08:09:44;100013.59;;;16.65;100.00
28448;BME280;15675;52.870;-1.416;2022-09-09T08:12:10;100015.88;;;16.76;100.00
28448;BME280;15675;52.870;-1.416;2022-09-09T08:14:38;100013.41;;;16.45;100.00
28448;BME280;15675;52.870;-1.416;2022-09-09T08:17:05;100012.50;;;16.44;100.00
28448;BME280;15675;52.870;-1.416;2022-09-09T08:19:31;100015.75;;;16.52;100.00
28448;BME280;15675;52.870;-1.416;2022-09-09T08:21:59;100016.81;;;16.47;100.00
28448;BME280;15675;52.870;-1.416;2022-09-09T08:24:24;100015.66;;;16.55;100.00
28448;BME280;15675;52.870;-1.416;2022-09-09T08:26:50;100023.81;;;16.73;100.00
28448;BME280;15675;52.870;-1.416;2022-09-09T08:29:16;100024.84;;;16.96;100.00
28448;BME280;15675;52.870;-1.416;2022-09-09T08:31:52;100031.91;;;16.94;100.00
28448;BME280;15675;52.870;-1.416;2022-09-09T08:34:20;100024.97;;;16.93;100.00
28448;BME280;15675;52.870;-1.416;2022-09-09T08:36:46;100024.47;;;16.80;100.00
28448;BME280;15675;52.870;-1.416;2022-09-09T08:39:15;100029.09;;;17.00;100.00
28448;BME280;15675;52.870;-1.416;2022-09-09T08:47:24;100032.28;;;17.35;100.00
28448;BME280;15675;52.870;-1.416;2022-09-09T08:55:39;100032.22;;;17.36;100.00
28448;BME280;15675;52.870;-1.416;2022-09-09T08:58:33;100044.28;;;17.66;100.00
28448;BME280;15675;52.870;-1.416;2022-09-09T09:09:01;100032.31;;;17.08;100.00
28448;BME280;15675;52.870;-1.416;2022-09-09T09:11:24;100039.81;;;17.19;100.00
28448;BME280;15675;52.870;-1.416;2022-09-09T09:14:00;100037.75;;;17.27;100.00
28448;BME280;15675;52.870;-1.416;2022-09-09T09:18:58;100034.59;;;17.68;100.00
28448;BME280;15675;52.870;-1.416;2022-09-09T09:21:45;100039.59;;;17.74;100.00
28448;BME280;15675;52.870;-1.416;2022-09-09T09:24:28;100029.16;;;17.98;100.00
28448;BME280;15675;52.870;-1.416;2022-09-09T09:27:10;100031.25;;;18.11;100.00
28448;BME280;15675;52.870;-1.416;2022-09-09T09:29:38;100027.53;;;17.93;100.00
28448;BME280;15675;52.870;-1.416;2022-09-09T09:32:05;100026.72;;;18.15;100.00
28448;BME280;15675;52.870;-1.416;2022-09-09T09:34:35;100031.50;;;18.27;100.00
28448;BME280;15675;52.870;-1.416;2022-09-09T09:37:01;100037.41;;;18.33;100.00
28448;BME280;15675;52.870;-1.416;2022-09-09T09:39:32;100039.06;;;18.13;100.00
28448;BME280;15675;52.870;-1.416;2022-09-09T09:42:10;100041.91;;;18.07;100.00
28448;BME280;15675;52.870;-1.416;2022-09-09T09:44:39;100039.13;;;18.11;100.00
28448;BME280;15675;52.870;-1.416;2022-09-09T09:47:23;100033.88;;;18.11;100.00
28448;BME280;15675;52.870;-1.416;2022-09-09T09:49:56;100039.69;;;18.42;100.00
28448;BME280;15675;52.870;-1.416;2022-09-09T09:52:28;100050.91;;;18.47;100.00
28448;BME280;15675;52.870;-1.416;2022-09-09T09:54:56;100043.91;;;18.46;100.00
28448;BME280;15675;52.870;-1.416;2022-09-09T09:57:29;100046.81;;;18.38;100.00
28448;BME280;15675;52.870;-1.416;2022-09-09T10:02:39;100050.44;;;18.80;100.00
28448;BME280;15675;52.870;-1.416;2022-09-09T10:05:17;100046.69;;;18.87;100.00
28448;BME280;15675;52.870;-1.416;2022-09-09T10:07:44;100050.50;;;18.56;100.00
28448;BME280;15675;52.870;-1.416;2022-09-09T10:10:39;100052.22;;;18.57;100.00
28448;BME280;15675;52.870;-1.416;2022-09-09T10:13:14;100055.69;;;18.58;100.00
28448;BME280;15675;52.870;-1.416;2022-09-09T10:21:36;100055.97;;;18.52;100.00
28448;BME280;15675;52.870;-1.416;2022-09-09T10:24:33;100053.44;;;18.71;100.00
28448;BME280;15675;52.870;-1.416;2022-09-09T10:45:57;100055.34;;;19.72;100.00
28448;BME280;15675;52.870;-1.416;2022-09-09T10:51:33;100058.56;;;19.78;100.00
28448;BME280;15675;52.870;-1.416;2022-09-09T10:56:26;100051.38;;;20.39;100.00
28448;BME280;15675;52.870;-1.416;2022-09-09T10:59:08;100051.16;;;20.63;100.00
28448;BME280;15675;52.870;-1.416;2022-09-09T11:01:41;100048.78;;;20.76;100.00
28448;BME280;15675;52.870;-1.416;2022-09-09T11:04:17;100049.06;;;20.33;100.00
28448;BME280;15675;52.870;-1.416;2022-09-09T11:06:54;100056.47;;;19.87;100.00
28448;BME280;15675;52.870;-1.416;2022-09-09T11:09:23;100055.97;;;19.97;100.00
28448;BME280;15675;52.870;-1.416;2022-09-09T11:11:55;100059.50;;;19.36;100.00
28448;BME280;15675;52.870;-1.416;2022-09-09T11:14:29;100064.50;;;19.01;100.00
28448;BME280;15675;52.870;-1.416;2022-09-09T11:16:59;100066.03;;;19.27;100.00
28448;BME280;15675;52.870;-1.416;2022-09-09T11:19:40;100059.38;;;19.39;100.00
28448;BME280;15675;52.870;-1.416;2022-09-09T11:24:57;100075.16;;;19.60;100.00
28448;BME280;15675;52.870;-1.416;2022-09-09T11:40:40;100099.34;;;18.84;100.00
28448;BME280;15675;52.870;-1.416;2022-09-09T11:43:47;100097.97;;;18.97;100.00
28448;BME280;15675;52.870;-1.416;2022-09-09T11:46:13;100098.66;;;19.44;100.00
28448;BME280;15675;52.870;-1.416;2022-09-09T11:48:45;100106.59;;;19.83;100.00
28448;BME280;15675;52.870;-1.416;2022-09-09T11:53:57;100102.81;;;20.48;100.00
28448;BME280;15675;52.870;-1.416;2022-09-09T11:56:30;100102.88;;;20.27;100.00
28448;BME280;15675;52.870;-1.416;2022-09-09T11:59:04;100097.22;;;19.57;100.00
28448;BME280;15675;52.870;-1.416;2022-09-09T12:01:39;100102.59;;;19.95;100.00
28448;BME280;15675;52.870;-1.416;2022-09-09T12:06:54;100099.66;;;19.41;100.00
28448;BME280;15675;52.870;-1.416;2022-09-09T12:09:48;100114.63;;;18.74;100.00
28448;BME280;15675;52.870;-1.416;2022-09-09T12:12:34;100116.13;;;18.36;100.00
28448;BME280;15675;52.870;-1.416;2022-09-09T12:17:27;100114.28;;;18.38;100.00
28448;BME280;15675;52.870;-1.416;2022-09-09T12:20:21;100120.56;;;18.34;100.00
28448;BME280;15675;52.870;-1.416;2022-09-09T12:23:11;100125.09;;;18.30;100.00
28448;BME280;15675;52.870;-1.416;2022-09-09T12:28:18;100119.00;;;18.52;100.00
28448;BME280;15675;52.870;-1.416;2022-09-09T12:31:27;100119.41;;;18.65;100.00
28448;BME280;15675;52.870;-1.416;2022-09-09T12:33:50;100119.63;;;18.80;100.00
28448;BME280;15675;52.870;-1.416;2022-09-09T12:36:36;100116.69;;;18.90;100.00
28448;BME280;15675;52.870;-1.416;2022-09-09T12:39:37;100119.28;;;19.12;100.00
28448;BME280;15675;52.870;-1.416;2022-09-09T12:42:03;100111.72;;;19.25;100.00
28448;BME280;15675;52.870;-1.416;2022-09-09T12:44:29;100120.88;;;19.16;100.00
28448;BME280;15675;52.870;-1.416;2022-09-09T12:46:57;100106.66;;;19.20;100.00
28448;BME280;15675;52.870;-1.416;2022-09-09T12:49:37;100114.09;;;19.31;100.00
28448;BME280;15675;52.870;-1.416;2022-09-09T12:52:06;100120.53;;;19.24;100.00
28448;BME280;15675;52.870;-1.416;2022-09-09T12:54:34;100114.91;;;19.33;100.00
28448;BME280;15675;52.870;-1.416;2022-09-09T12:57:00;100122.00;;;19.52;100.00
28448;BME280;15675;52.870;-1.416;2022-09-09T12:59:38;100113.78;;;19.59;100.00
28448;BME280;15675;52.870;-1.416;2022-09-09T13:02:20;100116.00;;;19.48;100.00
28448;BME280;15675;52.870;-1.416;2022-09-09T13:04:46;100124.13;;;19.64;100.00
28448;BME280;15675;52.870;-1.416;2022-09-09T13:07:13;100116.69;;;19.94;100.00
28448;BME280;15675;52.870;-1.416;2022-09-09T13:09:41;100118.16;;;19.81;100.00
28448;BME280;15675;52.870;-1.416;2022-09-09T13:12:21;100118.66;;;19.89;100.00
28448;BME280;15675;52.870;-1.416;2022-09-09T13:14:53;100116.53;;;20.16;100.00
28448;BME280;15675;52.870;-1.416;2022-09-09T13:17:25;100120.13;;;20.34;100.00
28448;BME280;15675;52.870;-1.416;2022-09-09T13:19:54;100124.44;;;20.16;100.00
28448;BME280;15675;52.870;-1.416;2022-09-09T13:25:17;100125.06;;;20.42;100.00
28448;BME280;15675;52.870;-1.416;2022-09-09T13:27:56;100128.88;;;20.54;100.00
28448;BME280;15675;52.870;-1.416;2022-09-09T13:30:32;100122.03;;;20.69;100.00
28448;BME280;15675;52.870;-1.416;2022-09-09T13:33:05;100132.88;;;20.44;100.00
28448;BME280;15675;52.870;-1.416;2022-09-09T13:35:32;100121.81;;;20.55;100.00
28448;BME280;15675;52.870;-1.416;2022-09-09T13:37:59;100112.94;;;20.38;100.00
28448;BME280;15675;52.870;-1.416;2022-09-09T13:40:32;100122.13;;;19.69;100.00
28448;BME280;15675;52.870;-1.416;2022-09-09T13:42:59;100129.19;;;19.89;100.00
28448;BME280;15675;52.870;-1.416;2022-09-09T13:45:26;100126.09;;;19.79;100.00
28448;BME280;15675;52.870;-1.416;2022-09-09T13:47:55;100125.63;;;19.70;100.00
28448;BME280;15675;52.870;-1.416;2022-09-09T13:50:26;100128.31;;;19.68;100.00
28448;BME280;15675;52.870;-1.416;2022-09-09T13:52:54;100142.63;;;19.83;100.00
28448;BME280;15675;52.870;-1.416;2022-09-09T13:55:22;100155.50;;;19.69;100.00
28448;BME280;15675;52.870;-1.416;2022-09-09T13:57:58;100165.41;;;18.53;100.00
28448;BME280;15675;52.870;-1.416;2022-09-09T14:00:26;100174.25;;;18.26;100.00
28448;BME280;15675;52.870;-1.416;2022-09-09T14:02:52;100178.25;;;18.13;100.00
28448;BME280;15675;52.870;-1.416;2022-09-09T14:05:18;100178.28;;;17.86;100.00
28448;BME280;15675;52.870;-1.416;2022-09-09T14:07:44;100183.63;;;17.58;100.00
28448;BME280;15675;52.870;-1.416;2022-09-09T14:10:11;100194.25;;;17.27;100.00
28448;BME280;15675;52.870;-1.416;2022-09-09T14:12:37;100205.50;;;16.73;100.00
28448;BME280;15675;52.870;-1.416;2022-09-09T14:15:04;100203.63;;;16.47;100.00
28448;BME280;15675;52.870;-1.416;2022-09-09T14:17:30;100206.88;;;16.55;100.00
28448;BME280;15675;52.870;-1.416;2022-09-09T14:19:57;100207.13;;;16.48;100.00
28448;BME280;15675;52.870;-1.416;2022-09-09T14:22:23;100209.00;;;16.72;100.00
28448;BME280;15675;52.870;-1.416;2022-09-09T14:24:49;100207.88;;;16.81;100.00
28448;BME280;15675;52.870;-1.416;2022-09-09T14:27:16;100213.53;;;16.97;100.00
28448;BME280;15675;52.870;-1.416;2022-09-09T14:29:44;100217.16;;;16.93;100.00
28448;BME280;15675;52.870;-1.416;2022-09-09T14:32:10;100227.78;;;16.88;100.00
28448;BME280;15675;52.870;-1.416;2022-09-09T14:34:35;100221.13;;;16.77;100.00
28448;BME280;15675;52.870;-1.416;2022-09-09T14:37:01;100221.97;;;16.77;100.00
28448;BME280;15675;52.870;-1.416;2022-09-09T14:39:27;100217.75;;;16.71;100.00
28448;BME280;15675;52.870;-1.416;2022-09-09T14:41:52;100218.34;;;16.81;100.00
28448;BME280;15675;52.870;-1.416;2022-09-09T14:44:18;100216.34;;;16.91;100.00
28448;BME280;15675;52.870;-1.416;2022-09-09T14:46:44;100223.88;;;16.72;100.00
28448;BME280;15675;52.870;-1.416;2022-09-09T14:49:09;100224.16;;;16.93;100.00
28448;BME280;15675;52.870;-1.416;2022-09-09T14:51:38;100218.25;;;16.84;100.00
28448;BME280;15675;52.870;-1.416;2022-09-09T14:54:04;100222.63;;;17.14;100.00
28448;BME280;15675;52.870;-1.416;2022-09-09T14:56:32;100212.13;;;17.42;100.00
28448;BME280;15675;52.870;-1.416;2022-09-09T14:59:00;100208.41;;;17.49;100.00
28448;BME280;15675;52.870;-1.416;2022-09-09T15:01:29;100212.31;;;17.63;100.00
28448;BME280;15675;52.870;-1.416;2022-09-09T15:03:57;100208.28;;;17.79;100.00
28448;BME280;15675;52.870;-1.416;2022-09-09T15:06:24;100211.69;;;18.08;100.00